createdAt,value
2018-12-26T00:01:45.765Z,85.50
2018-12-26T00:04:26.284Z,85.80
2018-12-26T00:07:07.171Z,85.70
2018-12-26T00:09:46.931Z,85.70
2018-12-26T00:12:27.391Z,85.70
2018-12-26T00:15:07.879Z,85.40
2018-12-26T00:17:47.597Z,85.40
2018-12-26T00:20:27.727Z,85.20
2018-12-26T00:23:07.860Z,85.00
2018-12-26T00:25:47.936Z,85.10
2018-12-26T00:28:28.022Z,84.80
2018-12-26T00:31:08.148Z,84.90
2018-12-26T00:33:48.379Z,84.90
2018-12-26T00:36:28.522Z,85.00
2018-12-26T00:39:08.648Z,84.80
2018-12-26T00:41:48.614Z,84.70
2018-12-26T00:44:28.752Z,84.90
2018-12-26T00:47:08.928Z,84.80
2018-12-26T00:49:49.180Z,84.70
2018-12-26T00:52:28.893Z,84.90
2018-12-26T00:55:09.117Z,85.30
2018-12-26T00:57:49.112Z,85.10
2018-12-26T01:00:29.105Z,84.90
2018-12-26T01:03:09.762Z,84.70
2018-12-26T01:05:49.937Z,84.90
2018-12-26T01:08:29.882Z,84.90
2018-12-26T01:11:10.113Z,84.90
2018-12-26T01:13:50.100Z,84.90
2018-12-26T01:16:30.126Z,84.80
2018-12-26T01:19:10.111Z,84.30
2018-12-26T01:21:50.052Z,84.50
2018-12-26T01:24:30.163Z,84.90
2018-12-26T01:27:10.446Z,85.10
2018-12-26T01:29:50.488Z,85.20
2018-12-26T01:32:30.881Z,84.60
2018-12-26T01:35:10.553Z,84.40
2018-12-26T01:37:51.444Z,84.50
2018-12-26T01:40:31.650Z,84.70
2018-12-26T01:43:11.555Z,84.60
2018-12-26T01:45:51.460Z,84.90
2018-12-26T01:48:34.372Z,84.90
2018-12-26T01:51:14.846Z,84.70
2018-12-26T01:53:55.042Z,84.70
2018-12-26T01:56:35.248Z,84.70
2018-12-26T01:59:14.994Z,84.60
2018-12-26T02:01:55.155Z,84.70
2018-12-26T02:04:35.071Z,85.10
2018-12-26T02:07:15.206Z,84.80
2018-12-26T02:09:55.524Z,85.10
2018-12-26T02:12:35.702Z,84.90
2018-12-26T02:15:15.680Z,84.80
2018-12-26T02:17:55.628Z,85.10
2018-12-26T02:20:36.019Z,85.10
2018-12-26T02:23:16.080Z,85.20
2018-12-26T02:25:56.067Z,85.20
2018-12-26T02:28:36.113Z,85.10
2018-12-26T02:31:16.448Z,85.20
2018-12-26T02:33:57.237Z,85.00
2018-12-26T02:36:37.615Z,84.80
2018-12-26T02:39:17.469Z,84.60
2018-12-26T02:41:57.608Z,84.40
2018-12-26T02:44:37.749Z,84.40
2018-12-26T02:47:17.775Z,84.60
2018-12-26T02:49:57.877Z,84.80
2018-12-26T02:52:37.501Z,84.80
2018-12-26T02:55:17.873Z,85.00
2018-12-26T02:57:57.773Z,85.10
2018-12-26T03:00:37.814Z,85.20
2018-12-26T03:03:17.675Z,85.10
2018-12-26T03:05:58.056Z,84.90
2018-12-26T03:08:38.589Z,84.80
2018-12-26T03:11:18.400Z,84.60
2018-12-26T03:13:58.519Z,84.50
2018-12-26T03:16:38.677Z,84.70
2018-12-26T03:19:18.636Z,85.60
2018-12-26T03:21:58.690Z,84.70
2018-12-26T03:24:38.884Z,84.40
2018-12-26T03:27:18.807Z,84.50
2018-12-26T03:29:59.036Z,85.10
2018-12-26T03:32:38.778Z,85.10
2018-12-26T03:35:18.712Z,84.80
2018-12-26T03:37:59.246Z,84.40
2018-12-26T03:40:39.893Z,84.40
2018-12-26T03:43:19.959Z,84.50
2018-12-26T03:46:00.167Z,84.80
2018-12-26T03:48:40.219Z,85.00
2018-12-26T03:51:20.610Z,85.10
2018-12-26T03:54:00.452Z,85.10
2018-12-26T03:56:40.633Z,85.00
2018-12-26T03:59:20.737Z,84.60
2018-12-26T04:02:00.604Z,84.10
2018-12-26T04:04:41.061Z,84.00
2018-12-26T04:07:20.890Z,84.00
2018-12-26T04:10:00.974Z,83.90
2018-12-26T04:12:40.779Z,83.90
2018-12-26T04:15:21.093Z,83.70
2018-12-26T04:18:01.608Z,83.50
2018-12-26T04:20:41.402Z,83.70
2018-12-26T04:23:21.344Z,83.50
2018-12-26T04:26:01.665Z,83.90
2018-12-26T04:28:41.775Z,84.10
2018-12-26T04:31:22.025Z,84.10
2018-12-26T04:34:02.311Z,84.30
2018-12-26T04:36:42.349Z,84.50
2018-12-26T04:39:22.109Z,84.10
2018-12-26T04:42:02.016Z,84.10
2018-12-26T04:44:43.450Z,83.80
2018-12-26T04:47:23.306Z,83.80
2018-12-26T04:50:03.385Z,83.60
2018-12-26T04:52:43.716Z,83.60
2018-12-26T04:55:23.441Z,83.90
2018-12-26T04:58:03.763Z,84.40
2018-12-26T05:00:44.006Z,84.20
2018-12-26T05:03:24.617Z,84.20
2018-12-26T05:06:05.013Z,83.50
2018-12-26T05:08:45.531Z,83.80
2018-12-26T05:11:25.395Z,84.20
2018-12-26T05:14:05.628Z,83.90
2018-12-26T05:16:45.518Z,83.70
2018-12-26T05:19:25.786Z,83.50
2018-12-26T05:22:06.024Z,83.10
2018-12-26T05:24:46.110Z,83.20
2018-12-26T05:27:34.148Z,83.30
2018-12-26T05:30:08.551Z,82.80
2018-12-26T05:32:48.495Z,82.80
2018-12-26T05:35:28.870Z,83.20
2018-12-26T05:38:08.969Z,83.30
2018-12-26T05:40:48.937Z,82.90
2018-12-26T05:43:28.778Z,82.70
2018-12-26T05:46:08.683Z,83.10
2018-12-26T05:48:49.099Z,83.30
2018-12-26T05:51:28.848Z,82.90
2018-12-26T05:54:08.756Z,82.80
2018-12-26T05:56:49.056Z,83.00
2018-12-26T05:59:29.124Z,82.90
2018-12-26T06:02:08.920Z,82.70
2018-12-26T06:04:48.944Z,82.80
2018-12-26T06:07:28.976Z,83.80
2018-12-26T06:10:09.301Z,82.90
2018-12-26T06:12:49.636Z,83.20
2018-12-26T06:15:29.738Z,82.60
2018-12-26T06:18:09.871Z,82.20
2018-12-26T06:20:49.876Z,82.20
2018-12-26T06:23:29.880Z,82.10
2018-12-26T06:26:09.936Z,82.10
2018-12-26T06:28:53.286Z,82.50
2018-12-26T06:31:33.771Z,82.30
2018-12-26T06:34:13.450Z,82.50
2018-12-26T06:36:53.349Z,82.80
2018-12-26T06:39:33.956Z,82.80
2018-12-26T06:42:14.089Z,82.70
2018-12-26T06:44:54.258Z,82.60
2018-12-26T06:47:34.157Z,82.40
2018-12-26T06:50:14.009Z,82.50
2018-12-26T06:52:53.971Z,82.70
2018-12-26T06:55:34.014Z,82.90
2018-12-26T06:58:14.312Z,82.90
2018-12-26T07:00:54.234Z,82.40
2018-12-26T07:03:34.267Z,82.40
2018-12-26T07:06:14.484Z,82.90
2018-12-26T07:08:54.464Z,82.40
2018-12-26T07:11:32.715Z,82.40
2018-12-26T07:14:19.713Z,82.50
2018-12-26T07:17:00.016Z,82.90
2018-12-26T07:19:40.138Z,82.80
2018-12-26T07:22:20.291Z,82.50
2018-12-26T07:25:00.643Z,82.40
2018-12-26T07:27:40.764Z,82.10
2018-12-26T07:30:20.949Z,82.50
2018-12-26T07:33:01.345Z,81.80
2018-12-26T07:35:40.863Z,82.30
2018-12-26T07:38:21.166Z,82.30
2018-12-26T07:41:01.098Z,82.10
2018-12-26T07:43:40.964Z,82.50
2018-12-26T07:46:20.954Z,82.70
2018-12-26T07:49:00.901Z,82.60
2018-12-26T07:51:41.088Z,82.90
2018-12-26T07:54:21.344Z,82.50
2018-12-26T07:57:01.106Z,82.10
2018-12-26T07:59:41.455Z,82.70
2018-12-26T08:02:21.554Z,82.60
2018-12-26T08:05:01.770Z,82.60
2018-12-26T08:07:41.631Z,82.50
2018-12-26T08:10:21.942Z,82.00
2018-12-26T08:13:02.063Z,82.10
2018-12-26T08:15:42.191Z,82.00
2018-12-26T08:18:22.286Z,81.90
2018-12-26T08:21:02.553Z,82.50
2018-12-26T08:23:42.499Z,82.30
2018-12-26T08:26:22.613Z,82.80
2018-12-26T08:29:02.874Z,82.40
2018-12-26T08:31:42.776Z,82.30
2018-12-26T08:34:22.886Z,81.80
2018-12-26T08:37:02.892Z,82.10
2018-12-26T08:39:43.089Z,81.10
2018-12-26T08:42:23.296Z,80.90
2018-12-26T08:45:03.192Z,80.20
2018-12-26T08:47:43.011Z,80.60
2018-12-26T08:50:23.092Z,80.60
2018-12-26T08:53:03.318Z,80.10
2018-12-26T08:55:43.466Z,80.10
2018-12-26T08:58:23.416Z,79.90
2018-12-26T09:01:03.966Z,80.20
2018-12-26T09:03:44.008Z,80.40
2018-12-26T09:06:24.251Z,80.40
2018-12-26T09:09:04.066Z,80.10
2018-12-26T09:11:44.069Z,79.70
2018-12-26T09:14:24.080Z,79.90
2018-12-26T09:17:04.035Z,80.20
2018-12-26T09:19:44.017Z,80.30
2018-12-26T09:22:24.419Z,80.20
2018-12-26T09:25:03.927Z,81.10
2018-12-26T09:27:44.238Z,80.00
2018-12-26T09:30:24.487Z,80.10
2018-12-26T09:33:04.547Z,80.20
2018-12-26T09:35:44.649Z,80.60
2018-12-26T09:38:24.561Z,81.00
2018-12-26T09:41:04.540Z,80.80
2018-12-26T09:43:44.502Z,80.80
2018-12-26T09:46:24.921Z,80.50
2018-12-26T09:49:05.312Z,80.60
2018-12-26T09:51:45.038Z,81.00
2018-12-26T09:54:25.524Z,81.50
2018-12-26T09:57:05.230Z,80.90
2018-12-26T09:59:45.406Z,82.00
2018-12-26T10:02:26.392Z,81.40
2018-12-26T10:05:06.524Z,81.10
2018-12-26T10:07:46.979Z,81.50
2018-12-26T10:10:26.456Z,81.70
2018-12-26T10:13:06.652Z,81.30
2018-12-26T10:15:46.891Z,81.40
2018-12-26T10:18:27.155Z,81.90
2018-12-26T10:21:07.256Z,82.10
2018-12-26T10:23:47.135Z,82.10
2018-12-26T10:26:27.044Z,81.70
2018-12-26T10:29:07.332Z,81.20
2018-12-26T10:31:47.259Z,81.10
2018-12-26T10:34:27.489Z,80.60
2018-12-26T10:37:07.742Z,80.60
2018-12-26T10:39:47.915Z,80.70
2018-12-26T10:42:28.203Z,80.60
2018-12-26T10:45:08.264Z,80.20
2018-12-26T10:47:48.492Z,80.20
2018-12-26T10:50:29.769Z,80.20
2018-12-26T10:53:09.528Z,80.30
2018-12-26T10:55:49.715Z,79.50
2018-12-26T10:58:29.815Z,80.10
2018-12-26T11:01:09.996Z,80.30
2018-12-26T11:03:49.874Z,79.00
2018-12-26T11:06:30.256Z,79.40
2018-12-26T11:09:10.062Z,80.10
2018-12-26T11:11:49.768Z,81.70
2018-12-26T11:14:30.083Z,80.30
2018-12-26T11:17:09.998Z,79.40
2018-12-26T11:19:49.848Z,78.80
2018-12-26T11:22:29.930Z,80.30
2018-12-26T11:25:10.382Z,79.20
2018-12-26T11:27:50.671Z,79.10
2018-12-26T11:30:30.962Z,79.20
2018-12-26T11:33:10.939Z,79.00
2018-12-26T11:35:51.487Z,79.10
2018-12-26T11:38:31.199Z,79.40
2018-12-26T11:41:11.210Z,79.10
2018-12-26T11:43:51.805Z,80.60
2018-12-26T11:46:31.685Z,79.80
2018-12-26T11:49:11.720Z,79.50
2018-12-26T11:51:51.655Z,79.10
2018-12-26T11:54:32.205Z,79.10
2018-12-26T11:57:11.929Z,80.50
2018-12-26T11:59:52.504Z,79.50
2018-12-26T12:02:32.802Z,79.80
2018-12-26T12:05:14.197Z,81.10
2018-12-26T12:07:54.432Z,81.50
2018-12-26T12:10:34.552Z,81.60
2018-12-26T12:13:15.256Z,81.60
2018-12-26T12:15:55.507Z,81.10
2018-12-26T12:18:35.828Z,80.80
2018-12-26T12:21:15.976Z,79.40
2018-12-26T12:26:55.030Z,79.10
2018-12-26T12:29:36.062Z,78.80
2018-12-26T12:32:16.488Z,79.10
2018-12-26T12:34:56.194Z,79.10
2018-12-26T12:37:36.490Z,79.50
2018-12-26T12:40:16.739Z,78.60
2018-12-26T12:42:56.480Z,78.70
2018-12-26T12:45:36.684Z,78.60
2018-12-26T12:48:16.835Z,79.20
2018-12-26T12:50:56.945Z,79.30
2018-12-26T12:53:37.285Z,78.80
2018-12-26T12:56:18.402Z,78.70
2018-12-26T12:58:58.411Z,78.40
2018-12-26T13:01:38.307Z,78.40
2018-12-26T13:04:18.193Z,78.10
2018-12-26T13:06:58.327Z,78.90
2018-12-26T13:09:38.508Z,78.30
2018-12-26T13:12:18.446Z,78.30
2018-12-26T13:14:58.706Z,77.80
2018-12-26T13:17:38.655Z,79.00
2018-12-26T13:20:18.730Z,78.30
2018-12-26T13:22:59.012Z,77.40
2018-12-26T13:25:39.245Z,77.20
2018-12-26T13:28:18.873Z,77.60
2018-12-26T13:31:05.128Z,77.90
2018-12-26T13:33:41.278Z,78.00
2018-12-26T13:36:21.020Z,78.40
2018-12-26T13:39:01.324Z,78.90
2018-12-26T13:41:43.322Z,80.50
2018-12-26T13:44:23.679Z,78.90
2018-12-26T13:47:03.541Z,78.60
2018-12-26T13:49:43.526Z,78.80
2018-12-26T13:52:23.763Z,78.30
2018-12-26T13:55:03.782Z,78.40
2018-12-26T13:57:43.908Z,78.20
2018-12-26T14:00:24.377Z,78.90
2018-12-26T14:03:05.096Z,79.10
2018-12-26T14:05:45.378Z,79.00
2018-12-26T14:08:25.154Z,79.50
2018-12-26T14:11:05.416Z,78.40
2018-12-26T14:13:45.517Z,77.70
2018-12-26T14:16:25.912Z,77.30
2018-12-26T14:19:05.706Z,78.70
2018-12-26T14:21:46.144Z,78.40
2018-12-26T14:24:26.348Z,79.20
2018-12-26T14:27:06.161Z,77.90
2018-12-26T14:29:46.583Z,77.90
2018-12-26T14:32:26.281Z,78.60
2018-12-26T14:35:06.304Z,78.70
2018-12-26T14:37:46.370Z,78.40
2018-12-26T14:40:26.738Z,78.00
2018-12-26T14:43:07.165Z,78.70
2018-12-26T14:45:46.906Z,78.50
2018-12-26T14:48:27.191Z,77.90
2018-12-26T14:51:06.850Z,78.00
2018-12-26T14:53:47.064Z,77.90
2018-12-26T14:56:27.280Z,77.40
2018-12-26T14:59:06.911Z,77.60
2018-12-26T15:01:47.128Z,77.90
2018-12-26T15:04:27.068Z,77.90
2018-12-26T15:07:07.456Z,78.00
2018-12-26T15:09:47.820Z,78.10
2018-12-26T15:12:27.634Z,77.60
2018-12-26T15:15:07.840Z,77.70
2018-12-26T15:17:47.966Z,78.10
2018-12-26T15:20:28.340Z,78.50
2018-12-26T15:23:08.213Z,78.20
2018-12-26T15:25:47.946Z,78.20
2018-12-26T15:28:28.366Z,78.20
2018-12-26T15:31:08.091Z,77.90
2018-12-26T15:33:47.986Z,78.10
2018-12-26T15:36:28.407Z,77.90
2018-12-26T15:39:08.423Z,77.90
2018-12-26T15:41:48.462Z,78.10
2018-12-26T15:44:28.530Z,78.20
2018-12-26T15:47:08.744Z,78.30
2018-12-26T15:49:48.666Z,78.50
2018-12-26T15:52:28.998Z,78.30
2018-12-26T15:55:08.972Z,78.40
2018-12-26T15:57:48.910Z,78.50
2018-12-26T16:00:37.233Z,78.70
2018-12-26T16:03:11.262Z,78.80
2018-12-26T16:05:51.280Z,78.80
2018-12-26T16:08:31.700Z,79.30
2018-12-26T16:11:11.752Z,79.20
2018-12-26T16:13:51.705Z,79.10
2018-12-26T16:16:31.604Z,79.30
2018-12-26T16:19:11.741Z,79.50
2018-12-26T16:21:51.774Z,80.00
2018-12-26T16:24:31.557Z,80.00
2018-12-26T16:27:12.952Z,79.40
2018-12-26T16:29:53.189Z,79.20
2018-12-26T16:32:33.301Z,79.70
2018-12-26T16:35:13.297Z,79.40
2018-12-26T16:38:01.303Z,79.10
2018-12-26T16:40:35.688Z,79.30
2018-12-26T16:43:15.947Z,78.70
2018-12-26T16:45:56.155Z,78.80
2018-12-26T16:48:36.410Z,78.70
2018-12-26T16:51:16.385Z,78.80
2018-12-26T16:53:56.356Z,79.20
2018-12-26T16:56:36.431Z,79.80
2018-12-26T16:59:16.596Z,79.50
2018-12-26T17:01:56.766Z,78.90
2018-12-26T17:04:36.876Z,79.30
2018-12-26T17:07:17.264Z,79.30
2018-12-26T17:09:57.000Z,79.40
2018-12-26T17:12:37.152Z,79.80
2018-12-26T17:15:17.140Z,79.40
2018-12-26T17:17:57.123Z,79.20
2018-12-26T17:20:36.847Z,79.20
2018-12-26T17:23:17.187Z,78.60
2018-12-26T17:25:57.274Z,79.70
2018-12-26T17:28:37.404Z,78.70
2018-12-26T17:31:17.508Z,78.80
2018-12-26T17:33:57.424Z,78.70
2018-12-26T17:36:37.555Z,78.60
2018-12-26T17:39:17.830Z,79.00
2018-12-26T17:41:57.941Z,79.10
2018-12-26T17:44:37.794Z,79.70
2018-12-26T17:47:18.167Z,79.10
2018-12-26T17:49:58.116Z,79.20
2018-12-26T17:52:38.020Z,79.30
2018-12-26T17:55:18.137Z,79.20
2018-12-26T17:57:58.127Z,79.30
2018-12-26T18:00:38.544Z,79.20
2018-12-26T18:03:18.690Z,79.20
2018-12-26T18:05:59.132Z,79.40
2018-12-26T18:08:39.182Z,79.70
2018-12-26T18:11:19.299Z,79.70
2018-12-26T18:13:59.217Z,80.00
2018-12-26T18:16:39.225Z,79.60
2018-12-26T18:19:19.526Z,79.70
2018-12-26T18:21:59.692Z,80.00
2018-12-26T18:24:39.512Z,79.30
2018-12-26T18:27:19.461Z,79.10
2018-12-26T18:29:59.509Z,79.20
2018-12-26T18:32:39.572Z,79.70
2018-12-26T18:35:19.577Z,79.60
2018-12-26T18:37:59.433Z,79.80
2018-12-26T18:40:39.681Z,79.70
2018-12-26T18:43:20.565Z,79.40
2018-12-26T18:46:01.034Z,79.30
2018-12-26T18:48:40.792Z,79.60
2018-12-26T18:51:20.953Z,79.60
2018-12-26T18:54:01.023Z,79.50
2018-12-26T18:56:40.993Z,79.40
2018-12-26T18:59:21.181Z,79.60
2018-12-26T19:02:01.224Z,79.60
2018-12-26T19:04:41.290Z,79.90
2018-12-26T19:07:21.231Z,79.80
2018-12-26T19:10:01.081Z,80.00
2018-12-26T19:12:41.428Z,80.10
2018-12-26T19:15:21.620Z,80.10
2018-12-26T19:18:01.532Z,80.40
2018-12-26T19:20:41.857Z,80.50
2018-12-26T19:23:21.484Z,80.30
2018-12-26T19:26:02.096Z,80.50
2018-12-26T19:28:41.847Z,80.50
2018-12-26T19:31:21.887Z,80.60
2018-12-26T19:34:01.727Z,80.70
2018-12-26T19:36:41.797Z,80.80
2018-12-26T19:39:22.152Z,80.80
2018-12-26T19:42:02.564Z,80.80
2018-12-26T19:44:42.393Z,80.80
2018-12-26T19:47:22.698Z,81.00
2018-12-26T19:50:05.196Z,81.00
2018-12-26T19:52:44.720Z,81.10
2018-12-26T19:55:25.028Z,81.20
2018-12-26T19:58:04.875Z,81.20
2018-12-26T20:00:45.405Z,81.00
2018-12-26T20:03:25.014Z,81.00
2018-12-26T20:06:05.327Z,81.10
2018-12-26T20:08:45.334Z,80.90
2018-12-26T20:11:25.692Z,81.20
2018-12-26T20:14:06.087Z,81.40
2018-12-26T20:16:47.318Z,81.50
2018-12-26T20:19:30.359Z,81.40
2018-12-26T20:22:13.098Z,81.50
2018-12-26T20:24:52.844Z,81.50
2018-12-26T20:27:32.960Z,81.50
2018-12-26T20:30:12.859Z,81.80
2018-12-26T20:32:53.104Z,81.50
2018-12-26T20:35:33.544Z,81.50
2018-12-26T20:38:13.763Z,81.60
2018-12-26T20:40:54.080Z,81.50
2018-12-26T20:43:33.844Z,81.60
2018-12-26T20:46:13.833Z,81.50
2018-12-26T20:48:53.725Z,81.40
2018-12-26T20:51:33.938Z,81.50
2018-12-26T20:54:14.187Z,81.40
2018-12-26T20:56:54.287Z,81.60
2018-12-26T20:59:34.256Z,81.60
2018-12-26T21:02:14.288Z,81.60
2018-12-26T21:04:54.604Z,81.40
2018-12-26T21:07:34.197Z,81.30
2018-12-26T21:10:16.054Z,81.20
2018-12-26T21:13:18.923Z,81.40
2018-12-26T21:15:59.064Z,81.40
2018-12-26T21:18:40.995Z,81.50
2018-12-26T21:21:20.791Z,82.00
2018-12-26T21:24:01.033Z,82.00
2018-12-26T21:26:44.058Z,81.90
2018-12-26T21:29:24.573Z,81.40
2018-12-26T21:32:04.588Z,81.50
2018-12-26T21:34:44.506Z,81.40
2018-12-26T21:37:24.526Z,81.40
2018-12-26T21:40:04.637Z,81.20
2018-12-26T21:42:45.043Z,81.50
2018-12-26T21:45:25.186Z,81.10
2018-12-26T21:48:05.874Z,80.50
2018-12-26T21:50:45.684Z,80.40
2018-12-26T21:53:25.562Z,80.40
2018-12-26T21:56:05.608Z,80.10
2018-12-26T21:58:45.727Z,80.00
2018-12-26T22:01:25.746Z,79.90
2018-12-26T22:04:06.701Z,79.40
2018-12-26T22:06:46.793Z,79.60
2018-12-26T22:09:26.762Z,79.50
2018-12-26T22:12:07.183Z,79.50
2018-12-26T22:14:46.965Z,79.50
2018-12-26T22:17:27.066Z,79.70
2018-12-26T22:20:07.124Z,79.70
2018-12-26T22:22:46.619Z,79.70
2018-12-26T22:25:26.912Z,79.70
2018-12-26T22:28:06.955Z,79.80
2018-12-26T22:30:47.308Z,79.80
2018-12-26T22:33:27.448Z,80.00
2018-12-26T22:36:07.250Z,80.10
2018-12-26T22:38:47.226Z,80.10
2018-12-26T22:41:27.079Z,80.30
2018-12-26T22:44:07.221Z,80.60
2018-12-26T22:46:47.376Z,80.70
2018-12-26T22:49:27.872Z,80.90
2018-12-26T22:52:08.114Z,80.60
2018-12-26T22:54:48.004Z,80.80
2018-12-26T22:57:27.970Z,80.30
2018-12-26T23:00:08.393Z,80.10
2018-12-26T23:02:49.281Z,79.80
2018-12-26T23:05:29.442Z,79.90
2018-12-26T23:08:09.374Z,79.90
2018-12-26T23:10:49.421Z,80.00
2018-12-26T23:13:29.616Z,79.90
2018-12-26T23:16:09.538Z,79.90
2018-12-26T23:18:49.912Z,80.00
2018-12-26T23:21:29.748Z,79.70
2018-12-26T23:24:09.824Z,79.70
2018-12-26T23:26:50.586Z,79.80
2018-12-26T23:29:30.448Z,80.00
2018-12-26T23:32:10.412Z,79.80
2018-12-26T23:34:50.983Z,79.60
2018-12-26T23:37:30.849Z,79.60
2018-12-26T23:40:10.932Z,79.50
2018-12-26T23:42:51.204Z,79.90
2018-12-26T23:45:31.018Z,80.50
2018-12-26T23:48:11.492Z,80.90
2018-12-26T23:50:51.769Z,80.90
2018-12-26T23:53:31.992Z,80.80
2018-12-26T23:56:11.868Z,80.70
2018-12-26T23:58:51.819Z,80.60
